Latest Weather Observations for Tuggeranong

IDN60801

Issued at 10:02 pm EST Thursday 30 July 2015 (issued every 30 minutes, with the page automatically refreshed every 10 minutes)

About weather observations | Map of weather stations | Latest weather observations for NSW | Other Formats
Station Details ID: 070339 Name: TUGGERANONG (ISABELLA PLAINS) AWS Lat: -35.42 Lon: 149.09 Height: 586.7 m
Data from the previous 72 hours. | See also: Recent months at Tuggeranong
Date/Time
EST
Temp
°C
App
Temp
°C
Dew
Point
Rel
Hum
%
Delta-T
°C
Wind Press
QNH
hPa
Press
MSL
hPa
Rain
since 9 am
mm
Dir
 
Spd
km/h
Gust
km/h
Spd
kts
Gust
kts
30/10:00pm 7.8 3.4 2.5 69 2.3 NNW 15 24 8 13 1018.8 1019.9 0.0
30/09:30pm 7.7 3.7 3.0 72 2.1 NNW 13 24 7 13 1019.0 1020.1 0.0
30/09:00pm 7.2 2.8 2.7 73 1.9 NW 15 22 8 12 1018.8 1019.9 0.0
30/08:30pm 7.0 2.6 2.9 75 1.8 NW 15 24 8 13 1019.4 1020.4 0.0
30/08:00pm 6.9 2.9 2.8 75 1.8 NW 13 22 7 12 1019.1 1020.2 0.0
30/07:30pm 6.7 3.4 2.4 74 1.8 N 9 13 5 7 1019.3 1020.3 0.0
30/07:00pm 7.3 3.6 2.2 70 2.2 N 11 19 6 10 1019.3 1020.3 0.0
30/06:30pm 7.9 4.5 1.7 65 2.6 NNW 9 15 5 8 1019.8 1020.9 0.0
30/06:00pm 8.3 4.9 1.9 64 2.7 NNW 9 17 5 9 1019.8 1020.9 0.0
30/05:30pm 8.4 4.6 1.8 63 2.8 NNW 11 20 6 11 1019.8 1020.9 0.0
30/05:00pm 8.8 4.1 1.2 59 3.2 NW 15 24 8 13 1019.8 1020.9 0.0
30/04:30pm 9.6 4.2 1.3 56 3.6 NW 19 28 10 15 1019.7 1020.8 0.0
30/04:00pm 9.9 4.3 1.3 55 3.7 NW 20 33 11 18 1019.6 1020.7 0.0
30/03:30pm 10.1 4.1 1.2 54 3.8 NW 22 33 12 18 1019.5 1020.6 0.0
30/03:00pm 10.6 4.5 0.6 50 4.2 NNW 22 37 12 20 1019.7 1020.8 0.0
30/02:30pm 11.5 5.1 1.2 49 4.5 NW 24 33 13 18 1020.0 1021.1 0.0
30/02:00pm 12.0 6.0 1.3 48 4.7 NW 22 37 12 20 1020.4 1021.5 0.0
30/01:30pm 11.3 5.5 2.3 54 4.0 NNW 22 35 12 19 1020.9 1022.1 0.0
30/01:00pm 12.1 6.5 1.4 48 4.7 NNW 20 32 11 17 1021.2 1022.3 0.0
30/12:30pm 12.5 7.2 2.1 49 4.6 NW 19 32 10 17 1021.8 1022.9 0.0
30/12:00pm 11.8 6.8 3.6 57 3.8 N 19 24 10 13 1022.4 1023.6 0.0
30/11:30am 10.2 4.5 2.8 60 3.3 NW 22 32 12 17 1022.9 1024.0 0.0
30/11:00am 10.8 5.7 2.9 58 3.5 NNW 19 30 10 16 1023.1 1024.2 0.0
30/10:30am 9.7 4.8 2.3 60 3.2 N 17 28 9 15 1023.4 1024.5 0.0
30/10:00am 9.4 4.4 1.6 58 3.3 NNW 17 28 9 15 1023.6 1024.7 0.0
30/09:30am 8.5 3.6 1.9 63 2.8 NNW 17 30 9 16 1024.0 1025.2 0.0
30/09:00am 7.0 2.4 1.3 67 2.4 N 15 22 8 12 1024.4 1025.6 0.0
30/08:30am 6.5 2.3 1.6 71 2.0 N 13 19 7 10 1024.5 1025.7 0.0
30/08:00am 5.0 0.7 0.9 75 1.6 N 13 20 7 11 1024.8 1025.9 0.0
30/07:30am 5.5 2.1 1.6 76 1.6 NNW 9 19 5 10 1024.6 1025.8 0.0
30/07:00am 3.3 -0.3 0.9 84 0.9 WNW 9 13 5 7 1024.5 1025.7 0.0
30/06:30am 2.7 -1.3 0.8 87 0.7 E 11 15 6 8 1024.5 1025.7 0.0
30/06:00am 2.9 -0.7 0.6 85 0.9 E 9 15 5 8 1024.5 1025.7 0.0
30/05:30am 4.0 1.0 2.2 88 0.7 NNW 7 13 4 7 1024.4 1025.6 0.0
30/05:00am 0.6 -1.7 0.2 97 0.2 W 2 6 1 3 1024.8 1025.9 0.0
30/04:30am 0.1 -2.0 -0.7 94 0.3 CALM 0 0 0 0 1025.1 1026.2 0.0
30/04:00am 0.5 -1.5 -0.4 94 0.3 CALM 0 4 0 2 1025.6 1026.8 0.0
30/03:30am 1.0 -2.1 -0.1 92 0.4 E 6 7 3 4 1026.1 1027.3 0.0
30/03:00am 1.4 -2.6 0.5 94 0.3 E 11 13 6 7 1026.3 1027.5 0.0
30/02:30am 1.0 -1.0 0.0 93 0.4 CALM 0 0 0 0 1026.9 1028.1 0.0
30/02:00am 1.2 -1.9 0.3 94 0.3 ENE 6 9 3 5 1026.7 1027.9 0.0
30/01:30am 1.8 -0.9 0.5 91 0.5 ENE 4 9 2 5 1027.2 1028.4 0.0
30/01:00am 2.2 -0.1 0.6 89 0.6 ENE 2 6 1 3 1027.6 1028.8 0.0
30/12:30am 2.2 0.3 0.4 88 0.7 CALM 0 0 0 0 1027.8 1029.0 0.0
30/12:00am 2.5 0.6 0.6 87 0.7 CALM 0 6 0 3 1028.2 1029.5 0.0
 
Date/Time
EST
Temp
°C
App
Temp
°C
Dew
Point
Rel
Hum
%
Delta-T
°C
Wind Press
QNH
hPa
Press
MSL
hPa
Rain
since 9 am
mm
Dir
 
Spd
km/h
Gust
km/h
Spd
kts
Gust
kts
29/11:30pm 3.1 -0.1 1.0 86 0.8 E 7 11 4 6 1028.5 1029.7 0.0
29/11:00pm 3.2 0.1 1.1 86 0.8 ENE 7 9 4 5 1028.8 1030.0 0.0
29/10:30pm 3.2 0.6 1.1 86 0.8 E 4 7 2 4 1029.1 1030.3 0.0
29/10:00pm 3.8 1.6 0.8 81 1.2 E 2 6 1 3 1029.2 1030.4 0.0
29/09:30pm 4.2 1.6 0.7 78 1.4 ESE 4 7 2 4 1029.2 1030.4 0.0
29/09:00pm 4.8 2.9 0.4 73 1.7 CALM 0 0 0 0 1029.2 1030.4 0.0
29/08:30pm 6.6 3.4 0.5 65 2.5 NE 7 9 4 5 1029.2 1030.4 0.0
29/08:00pm 7.2 4.0 0.9 64 2.6 NNE 7 9 4 5 1029.3 1030.5 0.0
29/07:30pm 7.2 4.0 0.9 64 2.6 NNW 7 9 4 5 1029.7 1031.0 0.0
29/07:00pm 7.8 3.9 1.2 63 2.7 N 11 15 6 8 1029.5 1030.8 0.0
29/06:30pm 7.8 4.7 1.6 65 2.6 NW 7 11 4 6 1029.3 1030.5 0.0
29/06:00pm 8.4 4.6 1.8 63 2.8 N 11 15 6 8 1029.1 1030.3 0.0
29/05:30pm 9.0 4.9 2.1 62 3.0 N 13 17 7 9 1029.1 1030.3 0.0
29/05:00pm 9.5 5.4 2.1 60 3.2 N 13 19 7 10 1028.7 1029.9 0.0
29/04:30pm 10.0 5.5 1.9 57 3.5 N 15 22 8 12 1028.8 1030.0 0.0
29/04:00pm 11.1 6.5 1.6 52 4.1 N 15 22 8 12 1029.1 1030.3 0.0
29/03:30pm 11.1 6.1 1.4 51 4.2 N 17 24 9 13 1029.1 1030.3 0.0
29/03:00pm 11.3 6.2 0.7 48 4.5 NNW 17 24 9 13 1029.4 1030.6 0.0
29/02:30pm 12.2 6.8 1.2 47 4.8 N 19 28 10 15 1029.5 1030.8 0.0
29/02:00pm 12.0 6.9 0.5 45 4.9 N 17 28 9 15 1029.7 1031.0 0.0
29/01:30pm 11.9 6.7 0.1 44 5.0 N 17 28 9 15 1030.3 1031.5 0.0
29/01:00pm 11.8 6.6 0.3 45 4.9 NNW 17 28 9 15 1031.0 1032.3 0.0
29/12:30pm 11.3 6.4 1.8 52 4.2 N 17 26 9 14 1031.7 1033.0 0.0
29/12:00pm 11.0 6.5 2.3 55 3.8 NNW 15 24 8 13 1032.5 1033.8 0.0
29/11:30am 9.6 6.2 2.0 59 3.3 WNW 9 15 5 8 1033.1 1034.4 0.0
29/11:00am 9.3 7.1 3.1 65 2.7 NNW 4 7 2 4 1033.6 1034.9 0.0
29/10:30am 7.7 5.3 2.0 67 2.4 NNW 4 7 2 4 1034.1 1035.4 0.0
29/10:00am 5.5 2.7 1.8 77 1.5 WNW 6 9 3 5 1034.5 1035.8 0.0
29/09:30am 4.4 2.6 1.1 79 1.3 CALM 0 0 0 0 1034.4 1035.7 0.0
29/09:00am 3.4 1.6 1.1 85 0.9 CALM 0 0 0 0 1034.7 1036.0 0.0
29/08:30am 1.4 -0.5 0.5 94 0.3 CALM 0 2 0 1 1034.7 1036.0 0.0
29/08:00am -1.5 -3.7 -1.9 97 0.1 CALM 0 0 0 0 1034.7 1036.0 0.0
29/07:30am -2.6 -5.0 -3.0 97 0.0 CALM 0 0 0 0 1034.4 1035.7 0.0
29/07:00am -3.2 -5.7 -3.9 95 0.1 CALM 0 0 0 0 1034.1 1035.4 0.0
29/06:30am -3.0 -5.5 -3.7 95 0.1 CALM 0 0 0 0 1034.0 1035.3 0.0
29/06:00am -2.8 -5.2 -3.3 96 0.0 CALM 0 0 0 0 1033.5 1034.8 0.0
29/05:30am -2.6 -5.0 -3.1 96 0.1 CALM 0 0 0 0 1033.3 1034.6 0.0
29/05:00am -2.3 -4.7 -2.8 96 0.1 CALM 0 0 0 0 1033.1 1034.4 0.0
29/04:30am -2.1 -4.8 -2.6 96 0.1 ENE 2 6 1 3 1033.1 1034.4 0.0
29/04:00am -2.2 -4.6 -2.9 95 0.1 CALM 0 0 0 0 1033.3 1034.6 0.0
29/03:30am -1.7 -4.0 -2.4 95 0.2 CALM 0 0 0 0 1033.0 1034.3 0.0
29/03:00am -1.3 -3.6 -2.0 95 0.2 CALM 0 0 0 0 1033.1 1034.4 0.0
29/02:30am -1.0 -3.2 -1.7 95 0.2 CALM 0 0 0 0 1033.2 1034.5 0.0
29/02:00am -0.7 -2.9 -1.3 96 0.2 CALM 0 0 0 0 1033.3 1034.6 0.0
29/01:30am -0.4 -2.9 -0.8 97 0.1 NE 2 6 1 3 1033.3 1034.6 0.0
29/01:00am -0.7 -2.9 -1.3 96 0.2 CALM 0 0 0 0 1033.1 1034.4 0.0
29/12:30am -0.5 -2.7 -1.2 95 0.2 CALM 0 0 0 0 1033.3 1034.6 0.0
29/12:00am -0.5 -2.7 -1.2 95 0.2 CALM 0 0 0 0 1033.2 1034.5 0.0
 
Date/Time
EST
Temp
°C
App
Temp
°C
Dew
Point
Rel
Hum
%
Delta-T
°C
Wind Press
QNH
hPa
Press
MSL
hPa
Rain
since 9 am
mm
Dir
 
Spd
km/h
Gust
km/h
Spd
kts
Gust
kts
28/11:30pm 0.4 -2.0 -0.3 95 0.3 ENE 2 6 1 3 1033.2 1034.5 0.0
28/11:00pm 1.0 -0.9 0.4 96 0.2 CALM 0 0 0 0 1033.3 1034.6 0.0
28/10:30pm 0.8 -1.3 -0.5 91 0.5 CALM 0 0 0 0 1033.1 1034.4 0.0
28/10:00pm 1.6 -0.3 0.4 92 0.5 CALM 0 0 0 0 1033.1 1034.4 0.0
28/09:30pm 2.5 -0.1 1.2 91 0.5 ESE 4 7 2 4 1033.1 1034.4 0.0
28/09:00pm 2.8 -0.2 1.0 88 0.7 E 6 9 3 5 1033.1 1034.4 0.0
28/08:30pm 3.3 0.2 1.3 87 0.8 NE 7 7 4 4 1032.6 1033.9 0.0
28/08:00pm 3.5 0.9 1.1 84 1.0 SSE 4 7 2 4 1032.5 1033.8 0.0
28/07:30pm 4.7 1.9 1.9 82 1.2 ENE 6 7 3 4 1032.1 1033.3 0.0
28/07:00pm 5.4 2.5 1.5 76 1.6 E 6 7 3 4 1031.8 1033.1 0.0
28/06:30pm 7.2 4.4 2.1 70 2.2 NNE 6 7 3 4 1031.5 1032.8 0.0
28/06:00pm 8.4 5.5 2.4 66 2.6 NNE 7 9 4 5 1031.2 1032.5 0.0
28/05:30pm 9.5 6.7 2.1 60 3.2 N 6 9 3 5 1031.0 1032.3 0.0
28/05:00pm 10.8 7.7 1.6 53 4.0 NNW 7 11 4 6 1030.6 1031.8 0.0
28/04:30pm 11.5 8.0 1.5 50 4.4 NNW 9 15 5 8 1030.6 1031.8 0.0
28/04:00pm 12.1 8.3 2.0 50 4.5 N 11 17 6 9 1030.5 1031.7 0.0
28/03:30pm 12.5 9.0 1.5 47 4.9 NNW 9 15 5 8 1030.2 1031.4 0.0
28/03:00pm 12.5 9.1 2.1 49 4.6 NNW 9 13 5 7 1030.5 1031.7 0.0
28/02:30pm 12.3 8.9 1.6 48 4.7 N 9 17 5 9 1030.5 1031.7 0.0
28/02:00pm 12.3 9.1 1.0 46 4.9 W 7 13 4 7 1030.6 1031.8 0.0
28/01:30pm 11.8 8.2 0.3 45 4.9 NNW 9 17 5 9 1030.9 1032.1 0.0
28/01:00pm 11.4 8.2 0.5 47 4.6 NW 7 13 4 7 1031.2 1032.5 0.0
28/12:30pm 10.9 7.9 0.6 49 4.4 SSW 6 11 3 6 1031.7 1033.0 0.0
28/12:00pm 9.9 6.3 0.3 51 4.0 W 9 13 5 7 1032.4 1033.7 0.0
28/11:30am 9.3 6.1 1.0 56 3.5 W 7 11 4 6 1032.7 1034.0 0.0
28/11:00am 8.0 5.1 1.6 64 2.7 NW 6 9 3 5 1033.2 1034.5 0.0
28/10:30am 6.7 3.8 1.4 69 2.2 NNW 6 7 3 4 1033.4 1034.7 0.0
28/10:00am 5.0 2.8 0.9 75 1.6 S 2 6 1 3 1033.5 1034.8 0.0
28/09:30am 4.0 2.1 0.7 79 1.3 CALM 0 6 0 3 1033.4 1034.7 0.0
28/09:00am 2.1 0.1 -0.3 84 0.9 CALM 0 0 0 0 1033.4 1034.7 0.0
28/08:30am 0.3 -3.0 -1.1 90 0.5 WNW 6 7 3 4 1033.2 1034.5 0.0
28/08:00am -1.4 -3.6 -1.7 98 0.0 CALM 0 0 0 0 1032.8 1034.1 0.0
28/07:30am -3.7 -6.3 -4.5 94 0.1 CALM 0 0 0 0 1032.4 1033.7 0.0
28/07:00am -3.9 -6.5 -4.7 94 0.1 CALM 0 0 0 0 1031.8 1033.1 0.0
28/06:30am -3.6 -6.1 -4.4 94 0.1 CALM 0 0 0 0 1031.4 1032.7 0.0
28/06:00am -3.1 -6.3 -3.8 95 0.1 ENE 4 7 2 4 1031.1 1032.4 0.0
28/05:30am -3.2 -5.7 -4.0 94 0.1 CALM 0 0 0 0 1030.9 1032.1 0.0
28/05:00am -3.2 -5.7 -4.0 94 0.1 CALM 0 0 0 0 1030.6 1031.8 0.0
28/04:30am -2.6 -5.0 -3.4 94 0.2 CALM 0 0 0 0 1030.2 1031.4 0.0
28/04:00am -1.9 -4.6 -2.7 94 0.2 E 2 7 1 4 1029.9 1031.2 0.0
28/03:30am -2.0 -5.1 -2.8 94 0.2 ESE 4 7 2 4 1029.7 1031.0 0.0
28/03:00am -1.8 -4.9 -2.6 94 0.2 E 4 6 2 3 1029.5 1030.8 0.0
28/02:30am -1.7 -5.2 -2.7 93 0.3 ENE 6 6 3 3 1029.4 1030.6 0.0
28/02:00am -1.4 -3.7 -2.4 93 0.3 CALM 0 6 0 3 1029.4 1030.6 0.0
28/01:30am -1.2 -3.5 -2.5 91 0.4 CALM 0 0 0 0 1029.5 1030.8 0.0
28/01:00am -0.6 -4.2 -2.2 89 0.5 E 7 9 4 5 1029.4 1030.6 0.0
28/12:30am 0.1 -2.2 -2.1 85 0.8 CALM 0 6 0 3 1029.3 1030.5 0.0
28/12:00am 1.5 -1.6 0.0 90 0.6 NNE 6 11 3 6 1029.2 1030.4 0.0
 
Date/Time
EST
Temp
°C
App
Temp
°C
Dew
Point
Rel
Hum
%
Delta-T
°C
Wind Press
QNH
hPa
Press
MSL
hPa
Rain
since 9 am
mm
Dir
 
Spd
km/h
Gust
km/h
Spd
kts
Gust
kts
27/11:30pm 1.1 -2.4 -1.0 86 0.8 ENE 7 9 4 5 1029.2 1030.4 0.0
27/11:00pm 0.6 -3.3 -1.5 86 0.8 ENE 9 13 5 7 1029.3 1030.5 0.0
27/10:30pm 0.6 -2.7 -1.3 87 0.7 E 6 7 3 4 1029.3 1030.5 0.0

Other Formats:

Comma delimited format used in spreadsheet applications
http://www.bom.gov.au/fwo/IDN60801/IDN60801.94925.axf

JavaScript Object Notation format (JSON) in row-major order
http://www.bom.gov.au/fwo/IDN60801/IDN60801.94925.json